sensor_id;sensor_type;location;lat;lon;timestamp;P1;durP1;ratioP1;P2;durP2;ratioP2
22318;SDS011;11327;52.334;9.506;2023-01-16T00:01:20;4.80;;;0.70;;
22318;SDS011;11327;52.334;9.506;2023-01-16T00:04:42;6.00;;;0.95;;
22318;SDS011;11327;52.334;9.506;2023-01-16T00:08:03;4.22;;;0.78;;
22318;SDS011;11327;52.334;9.506;2023-01-16T00:11:24;4.45;;;1.12;;
22318;SDS011;11327;52.334;9.506;2023-01-16T00:14:45;3.98;;;0.80;;
22318;SDS011;11327;52.334;9.506;2023-01-16T00:18:05;5.00;;;1.00;;
22318;SDS011;11327;52.334;9.506;2023-01-16T00:21:26;4.87;;;0.90;;
22318;SDS011;11327;52.334;9.506;2023-01-16T00:24:47;4.87;;;1.00;;
22318;SDS011;11327;52.334;9.506;2023-01-16T00:28:08;2.55;;;0.62;;
22318;SDS011;11327;52.334;9.506;2023-01-16T00:31:29;2.75;;;0.78;;
22318;SDS011;11327;52.334;9.506;2023-01-16T00:34:50;2.85;;;0.70;;
22318;SDS011;11327;52.334;9.506;2023-01-16T00:38:11;2.85;;;0.72;;
22318;SDS011;11327;52.334;9.506;2023-01-16T00:41:32;3.45;;;0.82;;
22318;SDS011;11327;52.334;9.506;2023-01-16T00:44:53;2.87;;;0.75;;
22318;SDS011;11327;52.334;9.506;2023-01-16T00:48:13;3.40;;;0.80;;
22318;SDS011;11327;52.334;9.506;2023-01-16T00:51:34;6.75;;;1.00;;
22318;SDS011;11327;52.334;9.506;2023-01-16T00:54:55;5.92;;;0.90;;
22318;SDS011;11327;52.334;9.506;2023-01-16T00:58:16;5.33;;;0.90;;
22318;SDS011;11327;52.334;9.506;2023-01-16T01:01:37;5.22;;;1.15;;
22318;SDS011;11327;52.334;9.506;2023-01-16T01:04:57;2.98;;;0.60;;
22318;SDS011;11327;52.334;9.506;2023-01-16T01:08:18;4.75;;;0.70;;
22318;SDS011;11327;52.334;9.506;2023-01-16T01:11:39;4.42;;;1.10;;
22318;SDS011;11327;52.334;9.506;2023-01-16T01:14:59;4.28;;;0.70;;
22318;SDS011;11327;52.334;9.506;2023-01-16T01:18:20;3.67;;;0.65;;
22318;SDS011;11327;52.334;9.506;2023-01-16T01:21:41;2.72;;;0.60;;
22318;SDS011;11327;52.334;9.506;2023-01-16T01:25:02;3.25;;;0.55;;
22318;SDS011;11327;52.334;9.506;2023-01-16T01:28:23;2.55;;;0.50;;
22318;SDS011;11327;52.334;9.506;2023-01-16T01:31:43;3.33;;;0.60;;
22318;SDS011;11327;52.334;9.506;2023-01-16T01:35:05;4.00;;;0.60;;
22318;SDS011;11327;52.334;9.506;2023-01-16T01:38:27;2.45;;;0.85;;
22318;SDS011;11327;52.334;9.506;2023-01-16T01:41:47;2.98;;;0.75;;
22318;SDS011;11327;52.334;9.506;2023-01-16T01:45:16;1.87;;;0.57;;
22318;SDS011;11327;52.334;9.506;2023-01-16T01:48:38;3.00;;;0.85;;
22318;SDS011;11327;52.334;9.506;2023-01-16T01:52:01;2.40;;;0.62;;
22318;SDS011;11327;52.334;9.506;2023-01-16T01:55:25;2.22;;;0.60;;
22318;SDS011;11327;52.334;9.506;2023-01-16T01:58:48;2.95;;;0.68;;
22318;SDS011;11327;52.334;9.506;2023-01-16T02:02:12;3.50;;;0.90;;
22318;SDS011;11327;52.334;9.506;2023-01-16T02:05:37;2.70;;;0.60;;
22318;SDS011;11327;52.334;9.506;2023-01-16T02:09:02;2.20;;;0.60;;
22318;SDS011;11327;52.334;9.506;2023-01-16T02:12:23;2.22;;;0.60;;
22318;SDS011;11327;52.334;9.506;2023-01-16T02:15:44;2.87;;;0.57;;
22318;SDS011;11327;52.334;9.506;2023-01-16T02:19:27;5.15;;;0.62;;
22318;SDS011;11327;52.334;9.506;2023-01-16T02:23:06;2.85;;;0.62;;
22318;SDS011;11327;52.334;9.506;2023-01-16T02:26:43;2.65;;;0.80;;
22318;SDS011;11327;52.334;9.506;2023-01-16T02:34:16;2.45;;;0.80;;
22318;SDS011;11327;52.334;9.506;2023-01-16T02:37:45;4.08;;;0.90;;
22318;SDS011;11327;52.334;9.506;2023-01-16T02:45:00;3.27;;;0.90;;
22318;SDS011;11327;52.334;9.506;2023-01-16T02:48:28;1.98;;;0.65;;
22318;SDS011;11327;52.334;9.506;2023-01-16T02:52:00;5.10;;;0.70;;
22318;SDS011;11327;52.334;9.506;2023-01-16T02:55:33;2.52;;;0.65;;
22318;SDS011;11327;52.334;9.506;2023-01-16T02:58:56;2.50;;;0.75;;
22318;SDS011;11327;52.334;9.506;2023-01-16T03:02:18;3.17;;;0.72;;
22318;SDS011;11327;52.334;9.506;2023-01-16T03:05:42;2.75;;;0.70;;
22318;SDS011;11327;52.334;9.506;2023-01-16T03:16:49;1.45;;;0.72;;
22318;SDS011;11327;52.334;9.506;2023-01-16T03:23:53;3.22;;;0.82;;
22318;SDS011;11327;52.334;9.506;2023-01-16T03:31:15;2.08;;;0.60;;
22318;SDS011;11327;52.334;9.506;2023-01-16T03:34:43;1.42;;;0.57;;
22318;SDS011;11327;52.334;9.506;2023-01-16T03:38:11;1.27;;;0.55;;
22318;SDS011;11327;52.334;9.506;2023-01-16T03:41:34;3.85;;;0.70;;
22318;SDS011;11327;52.334;9.506;2023-01-16T03:45:00;2.45;;;0.60;;
22318;SDS011;11327;52.334;9.506;2023-01-16T03:48:36;1.92;;;0.60;;
22318;SDS011;11327;52.334;9.506;2023-01-16T03:51:59;2.25;;;0.60;;
22318;SDS011;11327;52.334;9.506;2023-01-16T03:59:04;2.02;;;0.60;;
22318;SDS011;11327;52.334;9.506;2023-01-16T04:02:26;1.77;;;0.60;;
22318;SDS011;11327;52.334;9.506;2023-01-16T04:05:55;2.85;;;0.62;;
22318;SDS011;11327;52.334;9.506;2023-01-16T04:09:33;2.58;;;0.70;;
22318;SDS011;11327;52.334;9.506;2023-01-16T04:13:13;2.35;;;0.70;;
22318;SDS011;11327;52.334;9.506;2023-01-16T04:16:36;2.27;;;0.60;;
22318;SDS011;11327;52.334;9.506;2023-01-16T04:19:59;1.75;;;0.60;;
22318;SDS011;11327;52.334;9.506;2023-01-16T04:23:20;3.05;;;0.60;;
22318;SDS011;11327;52.334;9.506;2023-01-16T04:26:41;2.15;;;0.72;;
22318;SDS011;11327;52.334;9.506;2023-01-16T04:30:02;2.37;;;0.75;;
22318;SDS011;11327;52.334;9.506;2023-01-16T04:33:23;1.52;;;0.70;;
22318;SDS011;11327;52.334;9.506;2023-01-16T04:36:43;1.37;;;0.60;;
22318;SDS011;11327;52.334;9.506;2023-01-16T04:40:04;1.77;;;0.90;;
22318;SDS011;11327;52.334;9.506;2023-01-16T04:43:28;2.02;;;0.70;;
22318;SDS011;11327;52.334;9.506;2023-01-16T04:46:49;4.33;;;1.00;;
22318;SDS011;11327;52.334;9.506;2023-01-16T04:50:10;2.62;;;0.90;;
22318;SDS011;11327;52.334;9.506;2023-01-16T04:53:31;3.83;;;0.75;;
22318;SDS011;11327;52.334;9.506;2023-01-16T04:56:52;4.12;;;0.80;;
22318;SDS011;11327;52.334;9.506;2023-01-16T05:00:13;2.00;;;0.80;;
22318;SDS011;11327;52.334;9.506;2023-01-16T05:03:35;2.45;;;0.75;;
22318;SDS011;11327;52.334;9.506;2023-01-16T05:06:56;2.17;;;1.00;;
22318;SDS011;11327;52.334;9.506;2023-01-16T05:10:16;2.45;;;0.70;;
22318;SDS011;11327;52.334;9.506;2023-01-16T05:13:37;2.72;;;0.80;;
22318;SDS011;11327;52.334;9.506;2023-01-16T05:16:58;3.12;;;0.80;;
22318;SDS011;11327;52.334;9.506;2023-01-16T05:20:18;3.25;;;1.05;;
22318;SDS011;11327;52.334;9.506;2023-01-16T05:23:39;5.10;;;1.07;;
22318;SDS011;11327;52.334;9.506;2023-01-16T05:27:00;2.35;;;1.20;;
22318;SDS011;11327;52.334;9.506;2023-01-16T05:30:21;2.87;;;1.00;;
22318;SDS011;11327;52.334;9.506;2023-01-16T05:33:42;2.25;;;1.05;;
22318;SDS011;11327;52.334;9.506;2023-01-16T05:37:02;4.05;;;1.00;;
22318;SDS011;11327;52.334;9.506;2023-01-16T05:40:23;1.35;;;0.90;;
22318;SDS011;11327;52.334;9.506;2023-01-16T05:43:44;2.42;;;0.90;;
22318;SDS011;11327;52.334;9.506;2023-01-16T05:47:05;3.85;;;1.02;;
22318;SDS011;11327;52.334;9.506;2023-01-16T05:50:25;2.12;;;0.80;;
22318;SDS011;11327;52.334;9.506;2023-01-16T05:53:50;2.98;;;0.88;;
22318;SDS011;11327;52.334;9.506;2023-01-16T05:57:12;3.17;;;0.93;;
22318;SDS011;11327;52.334;9.506;2023-01-16T06:00:33;1.40;;;0.80;;
22318;SDS011;11327;52.334;9.506;2023-01-16T06:03:54;1.75;;;0.70;;
22318;SDS011;11327;52.334;9.506;2023-01-16T06:07:14;1.57;;;0.70;;
22318;SDS011;11327;52.334;9.506;2023-01-16T06:10:36;1.52;;;0.70;;
22318;SDS011;11327;52.334;9.506;2023-01-16T06:13:56;1.45;;;0.70;;
22318;SDS011;11327;52.334;9.506;2023-01-16T06:17:17;2.35;;;0.70;;
22318;SDS011;11327;52.334;9.506;2023-01-16T06:20:38;1.98;;;0.60;;
22318;SDS011;11327;52.334;9.506;2023-01-16T06:23:59;1.52;;;0.82;;
22318;SDS011;11327;52.334;9.506;2023-01-16T06:27:20;2.83;;;0.60;;
22318;SDS011;11327;52.334;9.506;2023-01-16T06:30:40;2.65;;;0.72;;
22318;SDS011;11327;52.334;9.506;2023-01-16T06:34:01;2.55;;;0.60;;
22318;SDS011;11327;52.334;9.506;2023-01-16T06:37:22;1.75;;;0.78;;
22318;SDS011;11327;52.334;9.506;2023-01-16T06:40:43;1.15;;;0.70;;
22318;SDS011;11327;52.334;9.506;2023-01-16T06:44:04;2.52;;;0.90;;
22318;SDS011;11327;52.334;9.506;2023-01-16T06:47:25;1.67;;;0.80;;
22318;SDS011;11327;52.334;9.506;2023-01-16T06:50:47;2.20;;;0.80;;
22318;SDS011;11327;52.334;9.506;2023-01-16T06:54:09;2.80;;;0.85;;
22318;SDS011;11327;52.334;9.506;2023-01-16T06:57:30;2.17;;;0.70;;
22318;SDS011;11327;52.334;9.506;2023-01-16T07:00:50;1.95;;;0.88;;
22318;SDS011;11327;52.334;9.506;2023-01-16T07:04:11;2.33;;;1.02;;
22318;SDS011;11327;52.334;9.506;2023-01-16T07:07:32;1.82;;;0.90;;
22318;SDS011;11327;52.334;9.506;2023-01-16T07:10:53;1.25;;;0.80;;
22318;SDS011;11327;52.334;9.506;2023-01-16T07:14:13;1.65;;;0.80;;
22318;SDS011;11327;52.334;9.506;2023-01-16T07:17:53;2.02;;;0.75;;
22318;SDS011;11327;52.334;9.506;2023-01-16T07:21:32;1.35;;;0.80;;
22318;SDS011;11327;52.334;9.506;2023-01-16T07:25:21;1.50;;;0.60;;
22318;SDS011;11327;52.334;9.506;2023-01-16T07:28:45;1.80;;;0.50;;
22318;SDS011;11327;52.334;9.506;2023-01-16T07:32:07;1.45;;;0.62;;
22318;SDS011;11327;52.334;9.506;2023-01-16T07:35:28;1.42;;;0.70;;
22318;SDS011;11327;52.334;9.506;2023-01-16T07:38:49;2.33;;;0.60;;
22318;SDS011;11327;52.334;9.506;2023-01-16T07:42:10;1.80;;;0.68;;
22318;SDS011;11327;52.334;9.506;2023-01-16T07:45:30;2.60;;;0.95;;
22318;SDS011;11327;52.334;9.506;2023-01-16T07:48:51;4.17;;;0.90;;
22318;SDS011;11327;52.334;9.506;2023-01-16T07:52:13;1.60;;;0.95;;
22318;SDS011;11327;52.334;9.506;2023-01-16T07:55:34;1.52;;;0.90;;
22318;SDS011;11327;52.334;9.506;2023-01-16T07:58:55;2.05;;;0.90;;
22318;SDS011;11327;52.334;9.506;2023-01-16T08:02:15;1.82;;;1.00;;
22318;SDS011;11327;52.334;9.506;2023-01-16T08:05:36;2.80;;;0.98;;
22318;SDS011;11327;52.334;9.506;2023-01-16T08:08:57;4.47;;;1.20;;
22318;SDS011;11327;52.334;9.506;2023-01-16T08:12:17;2.60;;;1.10;;
22318;SDS011;11327;52.334;9.506;2023-01-16T08:15:38;3.95;;;1.30;;
22318;SDS011;11327;52.334;9.506;2023-01-16T08:18:59;4.87;;;1.55;;
22318;SDS011;11327;52.334;9.506;2023-01-16T08:22:20;4.87;;;1.47;;
22318;SDS011;11327;52.334;9.506;2023-01-16T08:25:40;2.12;;;1.30;;
22318;SDS011;11327;52.334;9.506;2023-01-16T08:29:01;4.72;;;1.40;;
22318;SDS011;11327;52.334;9.506;2023-01-16T08:32:22;3.87;;;1.55;;
22318;SDS011;11327;52.334;9.506;2023-01-16T08:35:43;4.78;;;1.20;;
22318;SDS011;11327;52.334;9.506;2023-01-16T08:39:04;1.67;;;1.00;;
22318;SDS011;11327;52.334;9.506;2023-01-16T08:42:25;2.35;;;1.00;;
22318;SDS011;11327;52.334;9.506;2023-01-16T08:46:07;2.65;;;1.10;;
22318;SDS011;11327;52.334;9.506;2023-01-16T08:49:48;1.50;;;0.78;;
22318;SDS011;11327;52.334;9.506;2023-01-16T08:53:28;2.40;;;0.75;;
22318;SDS011;11327;52.334;9.506;2023-01-16T08:56:49;1.85;;;0.90;;
22318;SDS011;11327;52.334;9.506;2023-01-16T09:00:10;3.08;;;0.98;;
22318;SDS011;11327;52.334;9.506;2023-01-16T09:03:31;1.57;;;0.95;;
22318;SDS011;11327;52.334;9.506;2023-01-16T09:06:54;4.87;;;0.90;;
22318;SDS011;11327;52.334;9.506;2023-01-16T09:10:15;3.00;;;0.95;;
22318;SDS011;11327;52.334;9.506;2023-01-16T09:13:36;3.25;;;1.07;;
22318;SDS011;11327;52.334;9.506;2023-01-16T09:17:09;2.50;;;0.85;;
22318;SDS011;11327;52.334;9.506;2023-01-16T09:20:30;2.12;;;0.88;;
22318;SDS011;11327;52.334;9.506;2023-01-16T09:23:51;3.05;;;0.90;;
22318;SDS011;11327;52.334;9.506;2023-01-16T09:27:12;3.02;;;0.90;;
22318;SDS011;11327;52.334;9.506;2023-01-16T09:30:38;3.00;;;0.90;;
22318;SDS011;11327;52.334;9.506;2023-01-16T09:33:58;3.05;;;1.10;;
22318;SDS011;11327;52.334;9.506;2023-01-16T09:37:19;3.58;;;1.05;;
22318;SDS011;11327;52.334;9.506;2023-01-16T09:40:43;1.98;;;0.80;;
22318;SDS011;11327;52.334;9.506;2023-01-16T09:44:11;2.92;;;1.00;;
22318;SDS011;11327;52.334;9.506;2023-01-16T09:47:35;2.75;;;1.10;;
22318;SDS011;11327;52.334;9.506;2023-01-16T09:50:57;3.65;;;0.95;;
22318;SDS011;11327;52.334;9.506;2023-01-16T09:54:21;2.58;;;0.78;;
22318;SDS011;11327;52.334;9.506;2023-01-16T09:58:03;1.55;;;0.70;;
22318;SDS011;11327;52.334;9.506;2023-01-16T10:01:45;1.80;;;0.80;;
22318;SDS011;11327;52.334;9.506;2023-01-16T10:05:09;3.05;;;0.80;;
22318;SDS011;11327;52.334;9.506;2023-01-16T10:12:18;1.52;;;0.70;;
22318;SDS011;11327;52.334;9.506;2023-01-16T10:19:46;3.80;;;0.62;;
22318;SDS011;11327;52.334;9.506;2023-01-16T10:27:00;5.17;;;0.88;;
22318;SDS011;11327;52.334;9.506;2023-01-16T10:30:46;2.30;;;1.00;;
22318;SDS011;11327;52.334;9.506;2023-01-16T10:34:10;2.33;;;0.90;;
22318;SDS011;11327;52.334;9.506;2023-01-16T10:37:33;2.00;;;0.80;;
22318;SDS011;11327;52.334;9.506;2023-01-16T10:40:55;1.85;;;1.02;;
22318;SDS011;11327;52.334;9.506;2023-01-16T10:48:15;1.20;;;0.80;;
22318;SDS011;11327;52.334;9.506;2023-01-16T10:51:56;3.65;;;0.93;;
22318;SDS011;11327;52.334;9.506;2023-01-16T10:55:18;1.65;;;0.78;;
22318;SDS011;11327;52.334;9.506;2023-01-16T10:58:39;3.05;;;0.98;;
22318;SDS011;11327;52.334;9.506;2023-01-16T11:02:04;3.98;;;0.90;;
22318;SDS011;11327;52.334;9.506;2023-01-16T11:05:31;3.60;;;1.05;;
22318;SDS011;11327;52.334;9.506;2023-01-16T11:08:57;2.25;;;0.82;;
22318;SDS011;11327;52.334;9.506;2023-01-16T11:12:28;2.30;;;0.90;;
22318;SDS011;11327;52.334;9.506;2023-01-16T11:20:05;1.10;;;0.60;;
22318;SDS011;11327;52.334;9.506;2023-01-16T11:23:36;2.47;;;0.65;;
22318;SDS011;11327;52.334;9.506;2023-01-16T11:26:56;3.15;;;0.70;;
22318;SDS011;11327;52.334;9.506;2023-01-16T11:30:19;2.12;;;0.82;;
22318;SDS011;11327;52.334;9.506;2023-01-16T11:33:45;3.95;;;0.88;;
22318;SDS011;11327;52.334;9.506;2023-01-16T11:37:09;3.20;;;1.02;;
22318;SDS011;11327;52.334;9.506;2023-01-16T11:40:35;2.52;;;0.60;;
22318;SDS011;11327;52.334;9.506;2023-01-16T11:47:54;2.83;;;0.62;;
22318;SDS011;11327;52.334;9.506;2023-01-16T11:51:16;2.20;;;0.68;;
22318;SDS011;11327;52.334;9.506;2023-01-16T11:54:39;2.37;;;0.50;;
22318;SDS011;11327;52.334;9.506;2023-01-16T11:58:02;1.75;;;0.62;;
22318;SDS011;11327;52.334;9.506;2023-01-16T12:09:19;1.25;;;0.60;;
22318;SDS011;11327;52.334;9.506;2023-01-16T12:12:47;4.08;;;1.07;;
22318;SDS011;11327;52.334;9.506;2023-01-16T12:20:20;1.90;;;0.62;;
22318;SDS011;11327;52.334;9.506;2023-01-16T12:24:07;3.62;;;0.70;;
22318;SDS011;11327;52.334;9.506;2023-01-16T12:31:35;2.12;;;1.00;;
22318;SDS011;11327;52.334;9.506;2023-01-16T12:46:07;1.92;;;0.70;;
22318;SDS011;11327;52.334;9.506;2023-01-16T12:53:10;2.20;;;0.70;;
22318;SDS011;11327;52.334;9.506;2023-01-16T13:00:10;4.10;;;0.78;;
22318;SDS011;11327;52.334;9.506;2023-01-16T13:03:35;2.47;;;0.62;;
22318;SDS011;11327;52.334;9.506;2023-01-16T13:07:01;2.70;;;0.78;;
22318;SDS011;11327;52.334;9.506;2023-01-16T13:10:25;2.87;;;0.60;;
22318;SDS011;11327;52.334;9.506;2023-01-16T13:14:06;4.08;;;0.98;;
22318;SDS011;11327;52.334;9.506;2023-01-16T13:17:35;1.60;;;0.57;;
22318;SDS011;11327;52.334;9.506;2023-01-16T13:20:56;1.50;;;0.50;;
22318;SDS011;11327;52.334;9.506;2023-01-16T13:24:24;1.70;;;0.47;;
22318;SDS011;11327;52.334;9.506;2023-01-16T13:27:59;1.85;;;0.50;;
22318;SDS011;11327;52.334;9.506;2023-01-16T13:31:33;2.15;;;0.40;;
22318;SDS011;11327;52.334;9.506;2023-01-16T13:35:04;1.98;;;0.50;;
22318;SDS011;11327;52.334;9.506;2023-01-16T13:42:13;3.02;;;0.50;;
22318;SDS011;11327;52.334;9.506;2023-01-16T13:45:36;0.98;;;0.30;;
22318;SDS011;11327;52.334;9.506;2023-01-16T13:49:11;1.50;;;0.50;;
22318;SDS011;11327;52.334;9.506;2023-01-16T13:52:33;0.85;;;0.50;;
22318;SDS011;11327;52.334;9.506;2023-01-16T13:56:02;1.70;;;0.50;;
22318;SDS011;11327;52.334;9.506;2023-01-16T14:06:44;1.17;;;0.50;;
22318;SDS011;11327;52.334;9.506;2023-01-16T14:10:23;1.47;;;0.50;;
22318;SDS011;11327;52.334;9.506;2023-01-16T14:13:45;2.20;;;0.70;;
22318;SDS011;11327;52.334;9.506;2023-01-16T14:17:06;1.82;;;0.55;;
22318;SDS011;11327;52.334;9.506;2023-01-16T14:20:40;1.60;;;0.45;;
22318;SDS011;11327;52.334;9.506;2023-01-16T14:24:17;0.78;;;0.40;;
22318;SDS011;11327;52.334;9.506;2023-01-16T14:27:40;0.95;;;0.40;;
22318;SDS011;11327;52.334;9.506;2023-01-16T14:31:04;0.72;;;0.33;;
22318;SDS011;11327;52.334;9.506;2023-01-16T14:34:26;1.85;;;0.60;;
22318;SDS011;11327;52.334;9.506;2023-01-16T14:38:49;1.70;;;0.57;;
22318;SDS011;11327;52.334;9.506;2023-01-16T14:41:30;0.88;;;0.40;;
22318;SDS011;11327;52.334;9.506;2023-01-16T14:45:17;0.88;;;0.40;;
22318;SDS011;11327;52.334;9.506;2023-01-16T14:48:58;1.55;;;0.40;;
22318;SDS011;11327;52.334;9.506;2023-01-16T15:00:07;1.37;;;0.45;;
22318;SDS011;11327;52.334;9.506;2023-01-16T15:03:31;1.02;;;0.60;;
22318;SDS011;11327;52.334;9.506;2023-01-16T15:06:56;1.50;;;0.50;;
22318;SDS011;11327;52.334;9.506;2023-01-16T15:10:29;1.07;;;0.57;;
22318;SDS011;11327;52.334;9.506;2023-01-16T15:14:02;0.93;;;0.50;;
22318;SDS011;11327;52.334;9.506;2023-01-16T15:17:46;1.32;;;0.70;;
22318;SDS011;11327;52.334;9.506;2023-01-16T15:21:28;1.10;;;0.53;;
22318;SDS011;11327;52.334;9.506;2023-01-16T15:25:16;1.47;;;0.60;;
22318;SDS011;11327;52.334;9.506;2023-01-16T15:32:13;2.05;;;0.90;;
22318;SDS011;11327;52.334;9.506;2023-01-16T15:35:37;1.20;;;0.82;;
22318;SDS011;11327;52.334;9.506;2023-01-16T15:38:58;1.60;;;0.78;;
22318;SDS011;11327;52.334;9.506;2023-01-16T15:42:22;2.72;;;1.40;;
22318;SDS011;11327;52.334;9.506;2023-01-16T15:46:21;2.25;;;1.00;;
22318;SDS011;11327;52.334;9.506;2023-01-16T15:53:40;0.93;;;0.65;;
22318;SDS011;11327;52.334;9.506;2023-01-16T15:57:05;1.98;;;0.80;;
22318;SDS011;11327;52.334;9.506;2023-01-16T16:00:39;1.92;;;1.60;;
22318;SDS011;11327;52.334;9.506;2023-01-16T16:04:00;2.00;;;1.60;;
22318;SDS011;11327;52.334;9.506;2023-01-16T16:07:23;2.22;;;1.07;;
22318;SDS011;11327;52.334;9.506;2023-01-16T16:10:45;5.87;;;3.83;;
22318;SDS011;11327;52.334;9.506;2023-01-16T16:18:12;11.05;;;8.05;;
22318;SDS011;11327;52.334;9.506;2023-01-16T16:21:46;10.10;;;6.62;;
22318;SDS011;11327;52.334;9.506;2023-01-16T16:25:26;2.00;;;1.50;;
22318;SDS011;11327;52.334;9.506;2023-01-16T16:28:48;2.25;;;1.65;;
22318;SDS011;11327;52.334;9.506;2023-01-16T16:32:11;4.20;;;2.33;;
22318;SDS011;11327;52.334;9.506;2023-01-16T16:35:34;3.47;;;2.37;;
22318;SDS011;11327;52.334;9.506;2023-01-16T16:38:56;3.85;;;2.80;;
22318;SDS011;11327;52.334;9.506;2023-01-16T16:42:46;4.28;;;2.40;;
22318;SDS011;11327;52.334;9.506;2023-01-16T16:45:47;3.10;;;2.75;;
22318;SDS011;11327;52.334;9.506;2023-01-16T16:52:43;1.42;;;1.10;;
22318;SDS011;11327;52.334;9.506;2023-01-16T16:56:06;2.77;;;1.60;;
22318;SDS011;11327;52.334;9.506;2023-01-16T16:59:29;3.02;;;2.65;;
22318;SDS011;11327;52.334;9.506;2023-01-16T17:02:53;3.00;;;1.87;;
22318;SDS011;11327;52.334;9.506;2023-01-16T17:06:20;1.77;;;1.30;;
22318;SDS011;11327;52.334;9.506;2023-01-16T17:09:43;2.15;;;1.30;;
22318;SDS011;11327;52.334;9.506;2023-01-16T17:13:04;2.08;;;1.40;;
22318;SDS011;11327;52.334;9.506;2023-01-16T17:16:25;3.90;;;1.87;;
22318;SDS011;11327;52.334;9.506;2023-01-16T17:19:47;2.35;;;1.45;;
22318;SDS011;11327;52.334;9.506;2023-01-16T17:23:12;1.77;;;1.12;;
22318;SDS011;11327;52.334;9.506;2023-01-16T17:26:36;2.15;;;1.30;;
22318;SDS011;11327;52.334;9.506;2023-01-16T17:29:59;3.20;;;1.20;;
22318;SDS011;11327;52.334;9.506;2023-01-16T17:33:20;2.12;;;1.62;;
22318;SDS011;11327;52.334;9.506;2023-01-16T17:36:42;2.95;;;1.67;;
22318;SDS011;11327;52.334;9.506;2023-01-16T17:40:04;2.75;;;1.30;;
22318;SDS011;11327;52.334;9.506;2023-01-16T17:43:25;1.95;;;1.30;;
22318;SDS011;11327;52.334;9.506;2023-01-16T17:47:04;1.55;;;1.17;;
22318;SDS011;11327;52.334;9.506;2023-01-16T17:50:25;1.95;;;0.98;;
22318;SDS011;11327;52.334;9.506;2023-01-16T17:53:46;6.47;;;2.65;;
22318;SDS011;11327;52.334;9.506;2023-01-16T17:57:07;3.33;;;1.55;;
22318;SDS011;11327;52.334;9.506;2023-01-16T18:00:27;2.30;;;1.50;;
22318;SDS011;11327;52.334;9.506;2023-01-16T18:03:49;1.42;;;0.80;;
22318;SDS011;11327;52.334;9.506;2023-01-16T18:07:29;1.50;;;0.90;;
22318;SDS011;11327;52.334;9.506;2023-01-16T18:10:50;0.93;;;0.60;;
22318;SDS011;11327;52.334;9.506;2023-01-16T18:14:11;1.80;;;1.00;;
22318;SDS011;11327;52.334;9.506;2023-01-16T18:17:51;2.60;;;1.37;;
22318;SDS011;11327;52.334;9.506;2023-01-16T18:21:12;2.02;;;1.10;;
22318;SDS011;11327;52.334;9.506;2023-01-16T18:24:52;4.40;;;1.98;;
22318;SDS011;11327;52.334;9.506;2023-01-16T18:28:13;3.30;;;1.77;;
22318;SDS011;11327;52.334;9.506;2023-01-16T18:31:34;1.62;;;1.05;;
22318;SDS011;11327;52.334;9.506;2023-01-16T18:38:20;2.12;;;1.17;;
22318;SDS011;11327;52.334;9.506;2023-01-16T18:41:59;2.02;;;1.10;;
22318;SDS011;11327;52.334;9.506;2023-01-16T18:45:39;3.40;;;1.15;;
22318;SDS011;11327;52.334;9.506;2023-01-16T18:49:18;2.05;;;1.07;;
22318;SDS011;11327;52.334;9.506;2023-01-16T18:52:57;2.30;;;1.60;;
22318;SDS011;11327;52.334;9.506;2023-01-16T18:56:40;1.60;;;1.05;;
22318;SDS011;11327;52.334;9.506;2023-01-16T19:00:21;1.92;;;1.30;;
22318;SDS011;11327;52.334;9.506;2023-01-16T19:04:00;3.92;;;2.10;;
22318;SDS011;11327;52.334;9.506;2023-01-16T19:07:22;3.85;;;2.52;;
22318;SDS011;11327;52.334;9.506;2023-01-16T19:10:45;2.45;;;1.85;;
22318;SDS011;11327;52.334;9.506;2023-01-16T19:14:06;2.67;;;1.75;;
22318;SDS011;11327;52.334;9.506;2023-01-16T19:17:27;2.20;;;1.25;;
22318;SDS011;11327;52.334;9.506;2023-01-16T19:20:48;2.42;;;1.32;;
22318;SDS011;11327;52.334;9.506;2023-01-16T19:24:09;4.25;;;1.20;;
22318;SDS011;11327;52.334;9.506;2023-01-16T19:27:32;2.15;;;1.72;;
22318;SDS011;11327;52.334;9.506;2023-01-16T19:30:54;2.20;;;1.40;;
22318;SDS011;11327;52.334;9.506;2023-01-16T19:34:14;2.58;;;1.47;;
22318;SDS011;11327;52.334;9.506;2023-01-16T19:37:35;2.12;;;1.40;;
22318;SDS011;11327;52.334;9.506;2023-01-16T19:41:00;2.37;;;1.20;;
22318;SDS011;11327;52.334;9.506;2023-01-16T19:44:22;2.45;;;1.50;;
22318;SDS011;11327;52.334;9.506;2023-01-16T19:48:01;1.95;;;1.30;;
22318;SDS011;11327;52.334;9.506;2023-01-16T19:51:23;1.95;;;1.30;;
22318;SDS011;11327;52.334;9.506;2023-01-16T19:54:45;1.55;;;1.17;;
22318;SDS011;11327;52.334;9.506;2023-01-16T19:58:06;1.82;;;1.15;;
22318;SDS011;11327;52.334;9.506;2023-01-16T20:01:26;1.72;;;1.35;;
22318;SDS011;11327;52.334;9.506;2023-01-16T20:04:47;2.10;;;1.30;;
22318;SDS011;11327;52.334;9.506;2023-01-16T20:08:08;1.90;;;1.30;;
22318;SDS011;11327;52.334;9.506;2023-01-16T20:11:29;4.37;;;2.65;;
22318;SDS011;11327;52.334;9.506;2023-01-16T20:15:08;4.03;;;2.70;;
22318;SDS011;11327;52.334;9.506;2023-01-16T20:18:32;3.05;;;2.10;;
22318;SDS011;11327;52.334;9.506;2023-01-16T20:21:53;2.52;;;1.55;;
22318;SDS011;11327;52.334;9.506;2023-01-16T20:25:15;4.40;;;2.60;;
22318;SDS011;11327;52.334;9.506;2023-01-16T20:28:38;2.50;;;1.60;;
22318;SDS011;11327;52.334;9.506;2023-01-16T20:32:00;2.83;;;2.10;;
22318;SDS011;11327;52.334;9.506;2023-01-16T20:35:21;2.08;;;1.70;;
22318;SDS011;11327;52.334;9.506;2023-01-16T20:38:41;2.80;;;1.80;;
22318;SDS011;11327;52.334;9.506;2023-01-16T20:42:02;2.33;;;1.80;;
22318;SDS011;11327;52.334;9.506;2023-01-16T20:45:42;2.25;;;1.57;;
22318;SDS011;11327;52.334;9.506;2023-01-16T20:49:14;1.62;;;1.30;;
22318;SDS011;11327;52.334;9.506;2023-01-16T20:52:34;1.90;;;1.47;;
22318;SDS011;11327;52.334;9.506;2023-01-16T20:55:55;1.98;;;1.50;;
22318;SDS011;11327;52.334;9.506;2023-01-16T20:59:16;3.40;;;1.75;;
22318;SDS011;11327;52.334;9.506;2023-01-16T21:02:37;2.45;;;1.60;;
22318;SDS011;11327;52.334;9.506;2023-01-16T21:05:58;2.05;;;1.37;;
22318;SDS011;11327;52.334;9.506;2023-01-16T21:09:18;2.60;;;1.55;;
22318;SDS011;11327;52.334;9.506;2023-01-16T21:12:39;3.75;;;1.50;;
22318;SDS011;11327;52.334;9.506;2023-01-16T21:16:18;2.20;;;1.30;;
22318;SDS011;11327;52.334;9.506;2023-01-16T21:19:50;1.95;;;1.45;;
22318;SDS011;11327;52.334;9.506;2023-01-16T21:23:29;2.67;;;1.62;;
22318;SDS011;11327;52.334;9.506;2023-01-16T21:26:50;2.55;;;1.70;;
22318;SDS011;11327;52.334;9.506;2023-01-16T21:30:12;2.00;;;1.37;;
22318;SDS011;11327;52.334;9.506;2023-01-16T21:33:34;2.52;;;1.95;;
22318;SDS011;11327;52.334;9.506;2023-01-16T21:36:55;2.22;;;1.60;;
22318;SDS011;11327;52.334;9.506;2023-01-16T21:40:16;1.77;;;1.60;;
22318;SDS011;11327;52.334;9.506;2023-01-16T21:43:38;2.20;;;1.32;;
22318;SDS011;11327;52.334;9.506;2023-01-16T21:47:18;2.30;;;1.57;;
22318;SDS011;11327;52.334;9.506;2023-01-16T21:50:39;1.77;;;1.42;;
22318;SDS011;11327;52.334;9.506;2023-01-16T21:54:01;2.35;;;1.42;;
22318;SDS011;11327;52.334;9.506;2023-01-16T21:57:22;1.72;;;1.40;;
22318;SDS011;11327;52.334;9.506;2023-01-16T22:00:43;2.08;;;1.60;;
22318;SDS011;11327;52.334;9.506;2023-01-16T22:04:03;2.00;;;1.50;;
22318;SDS011;11327;52.334;9.506;2023-01-16T22:07:24;2.27;;;1.90;;
22318;SDS011;11327;52.334;9.506;2023-01-16T22:10:45;2.75;;;1.82;;
22318;SDS011;11327;52.334;9.506;2023-01-16T22:14:24;2.52;;;1.85;;
22318;SDS011;11327;52.334;9.506;2023-01-16T22:18:03;2.47;;;1.85;;
22318;SDS011;11327;52.334;9.506;2023-01-16T22:21:32;2.12;;;1.60;;
22318;SDS011;11327;52.334;9.506;2023-01-16T22:24:53;2.00;;;1.80;;
22318;SDS011;11327;52.334;9.506;2023-01-16T22:28:14;2.20;;;1.85;;
22318;SDS011;11327;52.334;9.506;2023-01-16T22:31:36;2.25;;;1.90;;
22318;SDS011;11327;52.334;9.506;2023-01-16T22:34:58;2.55;;;1.80;;
22318;SDS011;11327;52.334;9.506;2023-01-16T22:38:18;2.15;;;1.80;;